Time;durP1;ratioP1;P1;durP2;ratioP2;P2;SDS_P1;SDS_P2;PMS_P1;PMS_P2;Temp;Humidity;BMP_temperature;BMP_pressure;BME280_temperature;BME280_humidity;BME280_pressure;Samples;Min_cycle;Max_cycle;Signal;HPM_P1;HPM_P2
2023/10/10 00:00:37;;;;;;;0.90;0.70;;;;;;;11.20;100.00;101282.84;5033669;28;20531;-68
2023/10/10 00:03:08;;;;;;;0.80;0.40;;;;;;;11.12;100.00;101274.88;5035813;27;20524;-69
2023/10/10 00:05:39;;;;;;;0.80;0.40;;;;;;;11.17;100.00;101269.72;5035146;28;20490;-68
2023/10/10 00:08:10;;;;;;;1.50;1.17;;;;;;;11.17;100.00;101275.97;5036816;28;20455;-68
2023/10/10 00:10:50;;;;;;;0.80;0.40;;;;;;;11.19;100.00;101264.91;5036092;28;20528;-70
2023/10/10 00:13:20;;;;;;;0.80;0.43;;;;;;;11.17;100.00;101272.44;5034108;28;20532;-70
2023/10/10 00:15:55;;;;;;;0.80;0.50;;;;;;;11.25;100.00;101277.69;5039456;28;20420;-68
2023/10/10 00:18:24;;;;;;;0.80;0.40;;;;;;;11.31;100.00;101269.63;5037022;28;20442;-70
2023/10/10 00:21:06;;;;;;;0.80;0.40;;;;;;;11.33;100.00;101269.41;5039230;28;20481;-69
2023/10/10 00:23:42;;;;;;;0.80;0.40;;;;;;;11.28;100.00;101274.56;5037153;28;20424;-67
2023/10/10 00:26:15;;;;;;;0.80;0.50;;;;;;;11.31;100.00;101275.03;5035829;28;20416;-69
2023/10/10 00:28:54;;;;;;;1.30;0.70;;;;;;;11.27;100.00;101270.22;5036739;28;20440;-68
2023/10/10 00:31:28;;;;;;;0.80;0.40;;;;;;;11.27;100.00;101265.63;5043579;28;20447;-69
2023/10/10 00:33:58;;;;;;;0.80;0.40;;;;;;;11.22;100.00;101269.97;5045798;28;20428;-68
2023/10/10 00:36:33;;;;;;;0.80;0.67;;;;;;;11.12;100.00;101264.91;5046051;28;20468;-68
2023/10/10 00:39:12;;;;;;;0.80;0.50;;;;;;;11.15;100.00;101258.22;5046523;28;20412;-70
2023/10/10 00:41:50;;;;;;;0.80;0.50;;;;;;;11.08;100.00;101257.34;5111895;28;20521;-69
2023/10/10 00:44:21;;;;;;;0.80;0.40;;;;;;;11.07;100.00;101266.50;5046035;28;20487;-68
2023/10/10 00:46:56;;;;;;;0.90;0.60;;;;;;;11.12;100.00;101261.34;5043390;28;20427;-70
2023/10/10 00:49:28;;;;;;;0.80;0.40;;;;;;;11.13;100.00;101254.91;5105426;27;20547;-69
2023/10/10 00:52:06;;;;;;;0.80;0.40;;;;;;;11.15;100.00;101259.06;5036794;28;20560;-70
2023/10/10 00:54:43;;;;;;;0.80;0.40;;;;;;;11.15;100.00;101258.22;5038186;28;20452;-69
2023/10/10 00:57:17;;;;;;;0.80;0.40;;;;;;;11.24;100.00;101255.19;5101196;28;20454;-70
2023/10/10 00:59:48;;;;;;;0.80;0.40;;;;;;;11.18;100.00;101252.44;5035903;28;20844;-69
2023/10/10 01:02:20;;;;;;;0.80;0.40;;;;;;;11.26;100.00;101254.97;5035029;28;20431;-68
2023/10/10 01:04:55;;;;;;;0.80;0.40;;;;;;;11.32;100.00;101265.03;5037640;28;20824;-68
2023/10/10 01:07:25;;;;;;;0.90;0.57;;;;;;;11.30;100.00;101272.50;5035363;28;20428;-69
2023/10/10 01:09:59;;;;;;;2.40;1.80;;;;;;;11.29;100.00;101268.97;5100111;28;20547;-70
2023/10/10 01:12:35;;;;;;;0.80;0.40;;;;;;;11.21;100.00;101271.00;5027361;28;20483;-69
2023/10/10 01:15:08;;;;;;;0.80;0.50;;;;;;;11.19;100.00;101270.34;5030434;28;20497;-68
2023/10/10 01:17:39;;;;;;;0.80;0.40;;;;;;;11.21;100.00;101268.28;5033750;28;20432;-67
2023/10/10 01:20:18;;;;;;;0.80;0.40;;;;;;;11.24;100.00;101273.28;5090277;28;20460;-68
2023/10/10 01:22:51;;;;;;;0.80;0.40;;;;;;;11.24;100.00;101263.31;5036067;28;20488;-70
2023/10/10 01:28:13;;;;;;;1.87;1.77;;;;;;;11.32;100.00;101251.50;5020599;28;20454;-69
2023/10/10 01:30:57;;;;;;;0.80;0.40;;;;;;;11.24;100.00;101248.91;5026448;28;20457;-71
2023/10/10 01:33:36;;;;;;;0.80;0.50;;;;;;;11.28;100.00;101247.47;5073324;28;20437;-68
2023/10/10 01:36:11;;;;;;;0.80;0.40;;;;;;;11.42;100.00;101241.13;5024776;28;20436;-68
2023/10/10 01:39:21;;;;;;;0.80;0.50;;;;;;;11.42;100.00;101248.44;5028670;28;20939;-67
2023/10/10 01:41:51;;;;;;;0.80;0.50;;;;;;;11.35;100.00;101242.97;5027619;28;20943;-68
2023/10/10 01:44:22;;;;;;;0.80;0.40;;;;;;;11.37;100.00;101238.19;5025842;28;20908;-70
2023/10/10 01:46:52;;;;;;;0.80;0.40;;;;;;;11.39;100.00;101237.97;5026896;28;20422;-69
2023/10/10 01:49:25;;;;;;;0.83;0.67;;;;;;;11.59;100.00;101228.91;5031501;28;20918;-70
2023/10/10 01:51:58;;;;;;;0.83;0.60;;;;;;;11.54;100.00;101236.81;5094687;28;20470;-69
2023/10/10 01:54:34;;;;;;;0.80;0.40;;;;;;;11.40;100.00;101245.91;5030577;28;20424;-69
2023/10/10 01:57:07;;;;;;;0.80;0.50;;;;;;;11.35;100.00;101234.81;5096852;28;20435;-68
2023/10/10 01:59:38;;;;;;;0.80;0.40;;;;;;;11.39;100.00;101236.09;5108164;27;20436;-71
2023/10/10 02:02:11;;;;;;;0.90;0.57;;;;;;;11.47;100.00;101230.53;5088031;28;20426;-69
2023/10/10 02:04:41;;;;;;;0.80;0.50;;;;;;;11.52;100.00;101227.22;5032586;28;20506;-69
2023/10/10 02:07:21;;;;;;;0.80;0.40;;;;;;;11.49;100.00;101231.16;5023998;28;20773;-68
2023/10/10 02:10:12;;;;;;;0.80;0.40;;;;;;;11.53;100.00;101223.44;5027451;28;20427;-69
2023/10/10 02:12:44;;;;;;;1.03;0.93;;;;;;;11.50;100.00;101221.16;5024576;28;20852;-68
2023/10/10 02:15:18;;;;;;;2.30;0.73;;;;;;;11.49;100.00;101224.91;5028005;28;20773;-69
2023/10/10 02:17:54;;;;;;;0.80;0.40;;;;;;;11.54;100.00;101220.56;5026319;28;20415;-69
2023/10/10 02:20:49;;;;;;;0.80;0.40;;;;;;;11.49;100.00;101222.19;5025231;28;20430;-71
2023/10/10 02:23:30;;;;;;;0.80;0.40;;;;;;;11.40;100.00;101218.81;5098485;28;20932;-69
2023/10/10 02:26:14;;;;;;;0.80;0.40;;;;;;;11.63;100.00;101219.34;5028980;28;20447;-69
2023/10/10 02:28:46;;;;;;;0.80;0.40;;;;;;;11.76;100.00;101226.75;5026052;28;20426;-69
2023/10/10 02:31:18;;;;;;;1.80;1.23;;;;;;;11.56;100.00;101225.78;5026770;28;20472;-70
2023/10/10 02:34:02;;;;;;;0.80;0.40;;;;;;;11.50;100.00;101227.41;5026385;28;20507;-70
2023/10/10 02:36:31;;;;;;;0.80;0.40;;;;;;;11.47;100.00;101230.53;5031014;28;20451;-69
2023/10/10 02:39:18;;;;;;;0.80;0.50;;;;;;;11.65;100.00;101238.13;5031500;28;20436;-71
2023/10/10 02:41:50;;;;;;;0.80;0.40;;;;;;;11.57;100.00;101235.59;5027392;28;20815;-69
2023/10/10 02:44:46;;;;;;;0.90;0.63;;;;;;;11.51;100.00;101230.97;5027656;28;20848;-69
2023/10/10 02:47:30;;;;;;;0.90;0.60;;;;;;;11.59;100.00;101234.34;5110957;28;20439;-68
2023/10/10 02:50:13;;;;;;;0.90;0.60;;;;;;;11.65;100.00;101230.84;5098927;28;20429;-69
2023/10/10 02:52:45;;;;;;;0.80;0.40;;;;;;;11.56;100.00;101229.34;5097645;28;20466;-69
2023/10/10 02:55:22;;;;;;;0.80;0.40;;;;;;;11.57;100.00;101230.16;5021955;28;20816;-67
2023/10/10 02:57:54;;;;;;;0.80;0.40;;;;;;;11.55;100.00;101233.06;5065251;28;20539;-68
2023/10/10 03:00:29;;;;;;;0.80;0.40;;;;;;;11.59;100.00;101228.06;5027333;28;20432;-69
2023/10/10 03:02:58;;;;;;;0.80;0.50;;;;;;;11.60;100.00;101217.03;5024215;28;20488;-68
2023/10/10 03:05:39;;;;;;;0.80;0.50;;;;;;;11.61;100.00;101216.03;5084772;28;20850;-68
2023/10/10 03:08:14;;;;;;;0.80;0.40;;;;;;;11.62;100.00;101204.09;5102894;28;20416;-69
2023/10/10 03:10:46;;;;;;;0.80;0.50;;;;;;;11.56;100.00;101201.38;5086574;28;20465;-68
2023/10/10 03:13:31;;;;;;;0.80;0.43;;;;;;;11.62;100.00;101201.41;5027339;28;20460;-68
2023/10/10 03:16:31;;;;;;;0.80;0.40;;;;;;;11.68;100.00;101203.31;5029584;28;20502;-70
2023/10/10 03:19:27;;;;;;;0.80;0.40;;;;;;;11.74;100.00;101209.84;5094790;28;20526;-69
2023/10/10 03:25:05;;;;;;;0.80;0.50;;;;;;;11.85;100.00;101205.72;5091969;28;20459;-69
2023/10/10 03:27:54;;;;;;;0.80;0.40;;;;;;;11.75;100.00;101209.66;5103879;28;20439;-68
2023/10/10 03:30:50;;;;;;;0.80;0.40;;;;;;;11.79;100.00;101211.94;5091980;28;20415;-68
2023/10/10 03:33:36;;;;;;;0.90;0.60;;;;;;;11.77;100.00;101212.97;5028062;28;20991;-68
2023/10/10 03:36:22;;;;;;;0.80;0.40;;;;;;;12.02;100.00;101223.28;5030206;28;20448;-68
2023/10/10 03:39:16;;;;;;;0.80;0.50;;;;;;;12.10;100.00;101225.84;5102456;27;20436;-69
2023/10/10 05:24:51;;;;;;;1.13;1.03;;;;;;;12.50;100.00;101238.44;5029309;28;20403;-69
2023/10/10 05:27:29;;;;;;;0.80;0.50;;;;;;;12.46;100.00;101239.91;5026764;28;20535;-69
2023/10/10 05:29:59;;;;;;;0.90;0.70;;;;;;;12.55;100.00;101241.38;5028592;28;20523;-69
2023/10/10 05:32:30;;;;;;;1.50;1.13;;;;;;;12.50;100.00;101230.28;5028693;28;20448;-70
2023/10/10 05:35:10;;;;;;;0.80;0.40;;;;;;;12.58;100.00;101243.69;5092771;27;20509;-69
2023/10/10 05:37:40;;;;;;;0.80;0.40;;;;;;;12.70;100.00;101251.19;5028668;28;20477;-69
2023/10/10 05:40:13;;;;;;;0.80;0.43;;;;;;;12.71;100.00;101239.31;5028546;28;20511;-70
2023/10/10 05:42:45;;;;;;;0.80;0.50;;;;;;;12.75;100.00;101243.28;5027746;28;20442;-68
2023/10/10 05:45:14;;;;;;;0.80;0.40;;;;;;;12.74;100.00;101244.31;5029038;28;20460;-69
2023/10/10 05:47:44;;;;;;;0.80;0.50;;;;;;;12.74;100.00;101244.31;5027836;28;20429;-69
2023/10/10 05:50:13;;;;;;;1.53;0.63;;;;;;;12.85;100.00;101246.41;5030348;28;20424;-70
2023/10/10 05:52:43;;;;;;;0.80;0.40;;;;;;;12.89;100.00;101239.50;5031050;28;20443;-70
2023/10/10 05:55:13;;;;;;;0.80;0.50;;;;;;;12.99;100.00;101242.66;5028022;28;20488;-69
2023/10/10 05:57:45;;;;;;;0.80;0.40;;;;;;;13.13;100.00;101257.94;5028197;28;20411;-70
2023/10/10 06:00:15;;;;;;;0.80;0.63;;;;;;;13.13;100.00;101254.38;5026353;28;20459;-69
2023/10/10 06:02:45;;;;;;;1.30;0.60;;;;;;;13.18;100.00;101255.41;5025835;28;20548;-69
2023/10/10 06:05:17;;;;;;;0.80;0.50;;;;;;;13.28;100.00;101255.00;5027784;28;20419;-69
2023/10/10 06:07:49;;;;;;;2.30;0.77;;;;;;;13.28;100.00;101260.44;5031473;28;20523;-69
2023/10/10 06:10:18;;;;;;;0.80;0.40;;;;;;;13.27;100.00;101256.88;5028088;28;20423;-69
2023/10/10 06:12:49;;;;;;;0.80;0.40;;;;;;;13.33;100.00;101256.03;5026816;28;20439;-68
2023/10/10 06:15:20;;;;;;;0.80;0.40;;;;;;;13.25;100.00;101264.41;5030694;28;20471;-67
2023/10/10 06:17:49;;;;;;;0.80;0.50;;;;;;;13.23;100.00;101271.94;5027221;28;20448;-68
2023/10/10 06:20:21;;;;;;;0.80;0.40;;;;;;;13.24;100.00;101273.59;5023330;28;20772;-69
2023/10/10 06:22:54;;;;;;;0.80;0.40;;;;;;;13.23;100.00;101277.38;5029422;28;20455;-66
2023/10/10 06:25:24;;;;;;;0.90;0.53;;;;;;;13.21;100.00;101279.47;5025611;28;20508;-69
2023/10/10 06:27:57;;;;;;;0.80;0.40;;;;;;;13.23;100.00;101285.53;5028760;28;20989;-68
2023/10/10 06:30:26;;;;;;;3.27;0.63;;;;;;;13.33;100.00;101285.09;5025427;28;20421;-68
2023/10/10 06:33:08;;;;;;;0.80;0.50;;;;;;;13.48;100.00;101280.25;5029614;28;20499;-69
2023/10/10 06:35:38;;;;;;;0.80;0.40;;;;;;;13.63;100.00;101289.03;5033218;28;20440;-70
2023/10/10 06:38:10;;;;;;;0.80;0.50;;;;;;;13.80;100.00;101289.38;5032673;28;20421;-70
2023/10/10 06:40:42;;;;;;;0.80;0.40;;;;;;;14.08;100.00;101300.00;5030307;28;20508;-69
2023/10/10 06:43:15;;;;;;;0.80;0.40;;;;;;;14.15;100.00;101303.50;5032146;28;21424;-71
2023/10/10 06:45:48;;;;;;;0.80;0.47;;;;;;;14.25;100.00;101298.44;5034929;28;20427;-70
2023/10/10 06:48:17;;;;;;;0.80;0.40;;;;;;;14.31;100.00;101309.31;5033017;28;20407;-70
2023/10/10 06:50:53;;;;;;;0.80;0.40;;;;;;;14.35;100.00;101305.09;5101948;28;20411;-70
2023/10/10 06:53:35;;;;;;;1.10;0.50;;;;;;;14.44;100.00;101302.97;5032557;28;20403;-69
2023/10/10 06:56:14;;;;;;;0.80;0.50;;;;;;;14.42;100.00;101304.25;5033831;28;20470;-69
2023/10/10 06:58:46;;;;;;;0.80;0.40;;;;;;;14.52;100.00;101305.47;5034466;28;20432;-70
2023/10/10 07:01:19;;;;;;;0.80;0.50;;;;;;;14.61;100.00;101306.88;5036564;28;20973;-70
2023/10/10 07:03:54;;;;;;;0.90;0.77;;;;;;;14.76;100.00;101312.84;5029431;28;20496;-69
2023/10/10 07:06:23;;;;;;;0.90;0.50;;;;;;;14.78;100.00;101304.44;5029066;28;20440;-69
2023/10/10 07:09:14;;;;;;;0.80;0.40;;;;;;;14.70;100.00;101313.72;5037453;28;20402;-70
2023/10/10 07:11:43;;;;;;;0.80;0.50;;;;;;;14.72;100.00;101318.94;5038288;28;20476;-69
2023/10/10 07:14:16;;;;;;;0.90;0.50;;;;;;;14.66;100.00;101317.13;5033301;28;20403;-68
2023/10/10 07:16:45;;;;;;;0.80;0.40;;;;;;;14.62;100.00;101315.88;5036695;28;20445;-68
2023/10/10 07:19:23;;;;;;;0.80;0.40;;;;;;;14.65;100.00;101321.72;5036929;28;20771;-69
2023/10/10 07:21:51;;;;;;;0.80;0.50;;;;;;;14.61;100.00;101323.22;5034148;28;20508;-70
2023/10/10 07:24:28;;;;;;;1.67;0.70;;;;;;;14.65;100.00;101315.44;5024074;28;20954;-68
2023/10/10 07:27:05;;;;;;;0.80;0.40;;;;;;;14.58;100.00;101317.34;5025031;28;20478;-67
2023/10/10 07:32:27;;;;;;;0.80;0.40;;;;;;;14.95;100.00;101319.22;5032096;28;20433;-69
2023/10/10 07:34:58;;;;;;;0.90;0.67;;;;;;;15.06;100.00;101325.84;5034214;28;20445;-68
2023/10/10 07:37:29;;;;;;;0.80;0.40;;;;;;;15.06;100.00;101323.94;5031462;28;20424;-70
2023/10/10 07:40:08;;;;;;;0.80;0.50;;;;;;;14.98;100.00;101329.69;5030603;28;20436;-68
2023/10/10 07:42:37;;;;;;;0.80;0.40;;;;;;;15.08;100.00;101329.19;5026962;28;20460;-69
2023/10/10 07:45:14;;;;;;;0.80;0.40;;;;;;;15.13;100.00;101329.34;5026967;28;20422;-68
2023/10/10 07:50:27;;;;;;;0.80;0.40;;;;;;;15.18;100.00;101335.81;5030639;27;20429;-68
2023/10/10 07:52:56;;;;;;;0.80;0.40;;;;;;;15.22;100.00;101334.31;5026790;28;20509;-69
2023/10/10 07:55:32;;;;;;;0.80;0.50;;;;;;;15.35;100.00;101332.53;5030002;28;20460;-68
2023/10/10 07:58:06;;;;;;;0.80;0.50;;;;;;;15.32;100.00;101330.25;5029201;28;20398;-65
2023/10/10 08:00:37;;;;;;;0.80;0.40;;;;;;;15.47;100.00;101328.03;5025118;28;20426;-68
2023/10/10 08:03:07;;;;;;;0.97;0.67;;;;;;;15.65;100.00;101328.91;5025245;28;20853;-68
2023/10/10 08:05:36;;;;;;;0.80;0.40;;;;;;;15.86;100.00;101330.41;5029751;28;20932;-68
2023/10/10 08:08:06;;;;;;;0.80;0.40;;;;;;;15.94;100.00;101332.81;5029054;28;20407;-69
2023/10/10 08:10:38;;;;;;;0.90;0.50;;;;;;;15.93;100.00;101327.56;5027585;28;20442;-70
2023/10/10 08:13:10;;;;;;;0.80;0.40;;;;;;;16.05;100.00;101334.81;5026290;28;20514;-67
2023/10/10 08:15:51;;;;;;;0.80;0.40;;;;;;;16.13;100.00;101341.00;5027190;28;20447;-68
2023/10/10 08:18:40;;;;;;;0.80;0.40;;;;;;;16.24;100.00;101338.34;5029726;28;20752;-69
2023/10/10 08:21:11;;;;;;;0.80;0.40;;;;;;;16.31;100.00;101333.66;5029373;28;20403;-69
2023/10/10 08:23:42;;;;;;;0.80;0.50;;;;;;;16.30;100.00;101334.72;5029071;28;20447;-68
2023/10/10 08:26:17;;;;;;;1.00;0.77;;;;;;;16.28;100.00;101338.72;5025073;28;21067;-70
2023/10/10 08:28:47;;;;;;;0.80;0.50;;;;;;;16.38;100.00;101333.56;5028886;28;20410;-70
2023/10/10 08:31:18;;;;;;;0.80;0.50;;;;;;;16.37;100.00;101343.63;5029935;28;20436;-69
2023/10/10 08:33:47;;;;;;;0.80;0.40;;;;;;;16.14;100.00;101337.22;5028680;28;20456;-69
2023/10/10 08:36:26;;;;;;;0.80;0.40;;;;;;;16.23;100.00;101338.56;5029579;28;20427;-68
2023/10/10 08:38:57;;;;;;;0.80;0.40;;;;;;;16.29;100.00;101341.22;5025689;28;20433;-68
2023/10/10 08:41:28;;;;;;;0.80;0.40;;;;;;;16.44;100.00;101349.03;5101525;27;20474;-69
2023/10/10 08:44:01;;;;;;;0.80;0.40;;;;;;;16.17;100.00;101347.69;5033659;28;20428;-69
2023/10/10 08:46:40;;;;;;;0.80;0.40;;;;;;;16.30;100.00;101347.53;5029869;28;20424;-67
2023/10/10 08:49:10;;;;;;;0.80;0.70;;;;;;;16.27;100.00;101353.44;5024642;28;20420;-70
2023/10/10 08:51:40;;;;;;;0.80;0.40;;;;;;;16.00;100.00;101345.56;5025574;28;20547;-67
2023/10/10 08:54:10;;;;;;;1.10;0.90;;;;;;;16.07;100.00;101354.50;5025594;28;20399;-71
2023/10/10 08:56:40;;;;;;;1.00;0.90;;;;;;;16.08;100.00;101347.97;5027664;28;20502;-68
2023/10/10 08:59:11;;;;;;;0.90;0.70;;;;;;;16.23;100.00;101352.22;5031100;28;20453;-69
2023/10/10 09:01:42;;;;;;;0.80;0.40;;;;;;;16.07;100.00;101353.69;5024502;28;20448;-68
2023/10/10 09:04:18;;;;;;;0.80;0.40;;;;;;;16.18;100.00;101352.06;5026519;28;20429;-70
2023/10/10 09:06:58;;;;;;;0.80;0.40;;;;;;;16.19;100.00;101346.41;5024247;27;20429;-69
2023/10/10 09:09:34;;;;;;;0.80;0.40;;;;;;;16.20;100.00;101344.50;5093998;28;20483;-69
2023/10/10 09:12:04;;;;;;;0.80;0.50;;;;;;;16.12;100.00;101345.63;5025419;28;20479;-69
2023/10/10 09:14:41;;;;;;;0.80;0.40;;;;;;;15.99;100.00;101348.50;5028747;28;20498;-68
2023/10/10 09:17:28;;;;;;;0.90;0.60;;;;;;;16.18;100.00;101346.63;5027012;28;20537;-71
2023/10/10 09:19:58;;;;;;;0.97;0.70;;;;;;;15.93;100.00;101338.50;5027697;28;20487;-69
2023/10/10 09:22:34;;;;;;;0.80;0.50;;;;;;;16.01;100.00;101352.69;5027969;28;20449;-69
2023/10/10 09:25:18;;;;;;;1.30;0.70;;;;;;;16.07;100.00;101346.31;5024291;28;20395;-69
2023/10/10 09:27:58;;;;;;;0.90;0.57;;;;;;;15.98;100.00;101344.94;5031432;28;20391;-69
2023/10/10 09:30:32;;;;;;;0.80;0.50;;;;;;;16.05;100.00;101343.00;5033767;28;20410;-70
2023/10/10 09:33:22;;;;;;;0.80;0.40;;;;;;;16.26;100.00;101349.06;5030993;28;20419;-68
2023/10/10 09:35:58;;;;;;;0.80;0.40;;;;;;;16.36;100.00;101352.09;5026694;28;20419;-69
2023/10/10 09:38:34;;;;;;;0.80;0.40;;;;;;;16.39;100.00;101343.41;5032624;28;20436;-71
2023/10/10 09:41:14;;;;;;;0.80;0.40;;;;;;;16.43;100.00;101347.34;5096647;28;20497;-68
2023/10/10 09:44:01;;;;;;;0.80;0.40;;;;;;;16.51;100.00;101347.03;5029288;28;20752;-68
2023/10/10 09:46:58;;;;;;;0.80;0.40;;;;;;;16.35;100.00;101358.59;5031455;28;20907;-70
2023/10/10 09:49:40;;;;;;;1.17;0.50;;;;;;;16.59;100.00;101352.22;5030076;28;20481;-69
2023/10/10 09:55:25;;;;;;;0.80;0.40;;;;;;;16.37;100.00;101356.47;5027760;28;20440;-69
2023/10/10 09:58:00;;;;;;;0.80;0.40;;;;;;;16.55;100.00;101361.94;5025850;28;21166;-69
2023/10/10 10:00:44;;;;;;;0.80;0.50;;;;;;;16.66;99.96;101363.06;5028067;28;20436;-70
2023/10/10 10:03:31;;;;;;;1.10;0.50;;;;;;;16.74;97.51;101363.59;5030433;28;21252;-69
2023/10/10 10:06:34;;;;;;;0.80;0.40;;;;;;;16.98;98.65;101359.03;5030380;28;20808;-69
2023/10/10 10:09:18;;;;;;;0.80;0.50;;;;;;;17.13;96.32;101356.72;5027881;28;20407;-72
2023/10/10 10:12:04;;;;;;;0.80;0.50;;;;;;;17.04;98.50;101362.75;5027961;28;20446;-71
2023/10/10 10:14:46;;;;;;;0.80;0.50;;;;;;;17.15;94.82;101370.13;5103100;27;20414;-69
2023/10/10 10:17:24;;;;;;;0.80;0.40;;;;;;;17.15;93.97;101373.69;5025711;28;20910;-68
2023/10/10 10:20:19;;;;;;;0.80;0.40;;;;;;;16.92;98.34;101374.47;5033221;28;20406;-69
2023/10/10 10:22:53;;;;;;;0.80;0.47;;;;;;;16.77;100.00;101365.84;5026292;28;20452;-69
2023/10/10 10:25:28;;;;;;;0.80;0.40;;;;;;;16.86;98.26;101363.63;5021885;28;20422;-68
2023/10/10 10:28:10;;;;;;;0.80;0.40;;;;;;;16.88;100.00;101367.81;5028077;28;20431;-69
2023/10/10 10:30:50;;;;;;;0.80;0.40;;;;;;;17.03;100.00;101375.56;5027540;28;20402;-68
2023/10/10 10:33:24;;;;;;;0.80;0.40;;;;;;;17.20;100.00;101362.06;5024114;28;20441;-67
2023/10/10 10:36:14;;;;;;;0.80;0.40;;;;;;;17.46;98.53;101364.38;5080246;28;20931;-68
2023/10/10 10:41:47;;;;;;;0.80;0.40;;;;;;;17.52;97.96;101368.91;5029352;28;20422;-68
2023/10/10 10:44:54;;;;;;;0.80;0.43;;;;;;;17.58;100.00;101367.09;5026873;28;20408;-68
2023/10/10 10:47:48;;;;;;;0.80;0.40;;;;;;;17.57;99.21;101371.72;5031208;28;20426;-70
2023/10/10 10:50:46;;;;;;;0.90;0.50;;;;;;;17.65;99.02;101367.88;5030310;28;21012;-68
2023/10/10 11:01:45;;;;;;;0.80;0.40;;;;;;;17.49;98.56;101349.38;5024211;28;20823;-67
2023/10/10 11:04:22;;;;;;;0.90;0.50;;;;;;;17.67;99.83;101350.13;5030363;28;20406;-68
2023/10/10 11:06:51;;;;;;;0.80;0.40;;;;;;;17.74;95.77;101348.09;5023875;28;20420;-68
2023/10/10 11:09:31;;;;;;;0.80;0.40;;;;;;;17.73;95.36;101346.44;5096021;28;20423;-68
2023/10/10 11:12:03;;;;;;;0.80;0.40;;;;;;;17.73;94.32;101353.81;5025904;28;20853;-70
2023/10/10 11:14:44;;;;;;;1.00;0.70;;;;;;;17.89;94.15;101352.25;5029165;28;20510;-69
2023/10/10 11:17:18;;;;;;;0.90;0.60;;;;;;;17.86;94.82;101353.59;5028945;28;20524;-69
2023/10/10 11:19:53;;;;;;;0.80;0.40;;;;;;;17.91;94.81;101347.41;5024442;28;20457;-68
2023/10/10 11:22:39;;;;;;;0.90;0.67;;;;;;;17.74;92.61;101350.84;5028663;28;20427;-69
2023/10/10 11:25:11;;;;;;;1.10;0.80;;;;;;;17.73;92.58;101351.91;5033091;28;20957;-68
2023/10/10 11:27:45;;;;;;;0.80;0.50;;;;;;;17.70;93.67;101360.63;5027019;27;20449;-69
2023/10/10 11:30:19;;;;;;;0.80;0.40;;;;;;;17.64;94.46;101350.59;5026027;28;20395;-69
2023/10/10 11:32:48;;;;;;;0.80;0.40;;;;;;;17.78;95.58;101354.75;5025841;28;20427;-67
2023/10/10 11:35:26;;;;;;;0.80;0.40;;;;;;;17.63;93.51;101348.94;5030704;28;20415;-70
2023/10/10 11:38:06;;;;;;;0.90;0.60;;;;;;;17.53;94.71;101348.66;5025917;28;20474;-68
2023/10/10 11:40:36;;;;;;;0.80;0.40;;;;;;;17.19;97.35;101343.97;5032025;28;21078;-70
2023/10/10 11:43:11;;;;;;;0.80;0.40;;;;;;;16.98;99.77;101341.78;5028403;28;20904;-70
2023/10/10 11:45:41;;;;;;;0.80;0.40;;;;;;;16.92;99.96;101341.66;5027922;28;20432;-71
2023/10/10 11:48:14;;;;;;;0.80;0.40;;;;;;;16.85;99.98;101337.34;5034636;28;20410;-69
2023/10/10 11:50:46;;;;;;;1.30;0.80;;;;;;;16.95;100.00;101323.94;5028168;28;20440;-68
2023/10/10 11:53:19;;;;;;;0.80;0.40;;;;;;;17.18;99.99;101326.75;5025955;28;20476;-68
2023/10/10 11:55:49;;;;;;;0.90;0.80;;;;;;;17.60;95.87;101333.00;5023779;28;20418;-69
2023/10/10 11:58:19;;;;;;;0.80;0.40;;;;;;;17.97;92.25;101338.19;5029770;28;20442;-69
2023/10/10 12:01:03;;;;;;;0.80;0.50;;;;;;;17.99;89.66;101333.31;5026979;28;20451;-69
2023/10/10 12:03:41;;;;;;;0.80;0.40;;;;;;;18.19;91.50;101336.50;5027518;28;20842;-69
2023/10/10 12:06:16;;;;;;;0.80;0.40;;;;;;;18.64;88.95;101339.34;5030607;28;20435;-69
2023/10/10 12:08:48;;;;;;;0.80;0.50;;;;;;;18.65;86.81;101339.13;5030201;28;20420;-67
2023/10/10 12:11:20;;;;;;;0.90;0.50;;;;;;;18.78;87.65;101328.94;5030695;28;20439;-68
2023/10/10 12:13:54;;;;;;;0.90;0.50;;;;;;;18.96;84.55;101343.28;5023105;28;20909;-68
2023/10/10 12:16:23;;;;;;;3.90;1.50;;;;;;;19.16;85.79;101331.84;5029386;28;20557;-69
2023/10/10 12:18:54;;;;;;;2.60;2.50;;;;;;;18.65;84.93;101325.41;5027499;28;20461;-69
2023/10/10 12:21:25;;;;;;;0.90;0.40;;;;;;;18.56;85.65;101326.06;5037243;28;20547;-68
2023/10/10 12:23:55;;;;;;;0.90;0.70;;;;;;;18.74;85.02;101327.75;5026659;28;20445;-69
2023/10/10 12:26:31;;;;;;;0.90;0.43;;;;;;;18.43;84.59;101323.56;5029850;28;20467;-71
2023/10/10 12:29:02;;;;;;;0.90;0.40;;;;;;;18.46;84.51;101326.66;5029737;28;20418;-69
2023/10/10 12:31:33;;;;;;;0.90;0.60;;;;;;;18.60;84.95;101316.25;5030449;28;20439;-68
2023/10/10 12:34:06;;;;;;;0.90;0.40;;;;;;;18.54;85.04;101318.06;5028239;28;20452;-69
2023/10/10 12:36:36;;;;;;;0.90;0.40;;;;;;;18.61;86.94;101318.75;5091866;28;20448;-70
2023/10/10 12:39:14;;;;;;;0.90;0.47;;;;;;;18.47;88.56;101300.91;5088057;28;20439;-69
2023/10/10 12:41:46;;;;;;;1.00;0.60;;;;;;;18.78;86.55;101307.00;5027953;28;20449;-69
2023/10/10 12:44:17;;;;;;;0.90;0.40;;;;;;;18.91;85.10;101312.19;5031492;28;20438;-69
2023/10/10 12:46:46;;;;;;;0.90;0.50;;;;;;;18.95;85.29;101308.69;5027371;28;20434;-69
2023/10/10 12:49:17;;;;;;;0.90;0.40;;;;;;;18.79;85.96;101301.25;5024991;28;20422;-68
2023/10/10 12:51:46;;;;;;;0.90;0.50;;;;;;;18.88;86.52;101290.75;5021843;28;20856;-67
2023/10/10 12:54:17;;;;;;;1.00;0.60;;;;;;;18.74;85.58;101294.84;5101702;27;20917;-68
2023/10/10 12:56:55;;;;;;;1.00;0.60;;;;;;;18.75;85.54;101296.53;5028440;28;20411;-69
2023/10/10 12:59:28;;;;;;;0.90;0.40;;;;;;;18.62;86.68;101293.03;5025763;28;20471;-69
2023/10/10 13:02:03;;;;;;;0.90;0.50;;;;;;;18.72;85.12;101291.53;5028669;28;20518;-69
2023/10/10 13:04:32;;;;;;;0.90;0.40;;;;;;;18.62;82.96;101297.66;5028046;28;20434;-69
2023/10/10 13:07:03;;;;;;;0.90;0.43;;;;;;;18.41;84.58;101293.66;5095435;28;20454;-68
2023/10/10 13:09:37;;;;;;;1.27;0.60;;;;;;;18.52;85.83;101287.31;5028191;28;20472;-70
2023/10/10 13:12:06;;;;;;;0.90;0.40;;;;;;;18.42;87.36;101281.63;5023988;28;20504;-67
2023/10/10 13:14:38;;;;;;;0.90;0.40;;;;;;;18.31;87.71;101285.25;5028124;28;20401;-67
2023/10/10 13:19:52;;;;;;;0.97;0.47;;;;;;;18.66;84.53;101294.19;5031597;28;20483;-68
2023/10/10 13:22:21;;;;;;;0.90;0.50;;;;;;;18.48;85.63;101296.28;5031583;28;20960;-68
2023/10/10 13:24:50;;;;;;;1.00;0.60;;;;;;;18.41;85.92;101290.94;5029339;28;20528;-70
2023/10/10 13:27:21;;;;;;;0.80;0.40;;;;;;;18.43;86.16;101283.31;5028146;28;20403;-69
2023/10/10 13:29:51;;;;;;;0.80;0.40;;;;;;;18.57;86.28;101294.84;5027770;28;20505;-69
2023/10/10 13:32:21;;;;;;;0.90;0.40;;;;;;;18.85;85.54;101275.59;5031783;28;20458;-70
2023/10/10 13:34:51;;;;;;;0.90;0.40;;;;;;;18.74;86.42;101289.38;5025438;28;20420;-69
2023/10/10 13:37:22;;;;;;;0.90;0.40;;;;;;;18.67;87.71;101284.91;5030375;28;20437;-69
2023/10/10 13:39:54;;;;;;;0.90;0.47;;;;;;;18.72;87.79;101284.16;5027065;28;20523;-69
2023/10/10 13:42:23;;;;;;;0.80;0.40;;;;;;;18.69;86.23;101286.56;5024650;28;20446;-68
2023/10/10 13:45:08;;;;;;;0.90;0.40;;;;;;;18.50;86.65;101288.63;5027295;28;22349;-68
2023/10/10 13:47:39;;;;;;;0.80;0.40;;;;;;;18.54;88.58;101290.66;5026218;28;20443;-67
2023/10/10 13:50:31;;;;;;;0.90;0.40;;;;;;;18.49;85.27;101287.78;5027927;28;20516;-68
2023/10/10 13:53:00;;;;;;;1.13;0.63;;;;;;;18.46;85.97;101288.28;5026608;28;20492;-70
2023/10/10 13:55:34;;;;;;;0.80;0.40;;;;;;;18.27;86.57;101284.06;5100408;27;20426;-67
2023/10/10 13:58:07;;;;;;;0.90;0.40;;;;;;;18.21;88.06;101279.56;5034291;28;20437;-69
2023/10/10 14:00:39;;;;;;;0.80;0.40;;;;;;;18.21;89.79;101279.56;5024156;28;20461;-66
2023/10/10 14:03:08;;;;;;;1.20;0.70;;;;;;;18.21;89.67;101279.56;5024778;28;20449;-67
2023/10/10 14:05:41;;;;;;;0.80;0.40;;;;;;;18.30;88.75;101283.56;5027046;28;20419;-68
2023/10/10 14:08:17;;;;;;;0.80;0.60;;;;;;;18.21;89.48;101276.81;5023203;28;20396;-68